sensor_id;sensor_type;location;lat;lon;timestamp;P1;durP1;ratioP1;P2;durP2;ratioP2
8129;SDS011;4106;52.532;13.408;2022-07-23T00:02:11;3.30;;;3.00;;
8129;SDS011;4106;52.532;13.408;2022-07-23T00:04:38;4.03;;;3.72;;
8129;SDS011;4106;52.532;13.408;2022-07-23T00:07:05;3.85;;;3.55;;
8129;SDS011;4106;52.532;13.408;2022-07-23T00:09:32;3.83;;;3.42;;
8129;SDS011;4106;52.532;13.408;2022-07-23T00:12:00;3.70;;;3.45;;
8129;SDS011;4106;52.532;13.408;2022-07-23T00:14:28;5.28;;;4.00;;
8129;SDS011;4106;52.532;13.408;2022-07-23T00:16:55;4.65;;;3.53;;
8129;SDS011;4106;52.532;13.408;2022-07-23T00:19:23;3.95;;;3.50;;
8129;SDS011;4106;52.532;13.408;2022-07-23T00:21:51;3.42;;;3.12;;
8129;SDS011;4106;52.532;13.408;2022-07-23T00:24:19;3.90;;;3.50;;
8129;SDS011;4106;52.532;13.408;2022-07-23T00:26:47;3.35;;;3.15;;
8129;SDS011;4106;52.532;13.408;2022-07-23T00:29:14;4.80;;;3.53;;
8129;SDS011;4106;52.532;13.408;2022-07-23T00:31:42;5.40;;;3.30;;
8129;SDS011;4106;52.532;13.408;2022-07-23T00:34:09;3.90;;;3.60;;
8129;SDS011;4106;52.532;13.408;2022-07-23T00:36:36;4.03;;;3.67;;
8129;SDS011;4106;52.532;13.408;2022-07-23T00:39:03;3.80;;;3.30;;
8129;SDS011;4106;52.532;13.408;2022-07-23T00:41:31;3.75;;;3.22;;
8129;SDS011;4106;52.532;13.408;2022-07-23T00:46:46;3.33;;;3.12;;
8129;SDS011;4106;52.532;13.408;2022-07-23T00:49:13;3.30;;;3.00;;
8129;SDS011;4106;52.532;13.408;2022-07-23T00:51:40;3.40;;;2.90;;
8129;SDS011;4106;52.532;13.408;2022-07-23T00:54:08;3.40;;;3.10;;
8129;SDS011;4106;52.532;13.408;2022-07-23T00:56:36;3.03;;;2.72;;
8129;SDS011;4106;52.532;13.408;2022-07-23T00:59:05;3.30;;;3.03;;
8129;SDS011;4106;52.532;13.408;2022-07-23T01:01:32;3.67;;;3.37;;
8129;SDS011;4106;52.532;13.408;2022-07-23T01:04:00;4.50;;;3.20;;
8129;SDS011;4106;52.532;13.408;2022-07-23T01:06:27;3.17;;;2.97;;
8129;SDS011;4106;52.532;13.408;2022-07-23T01:08:54;3.10;;;2.90;;
8129;SDS011;4106;52.532;13.408;2022-07-23T01:11:22;3.00;;;2.80;;
8129;SDS011;4106;52.532;13.408;2022-07-23T01:13:49;2.87;;;2.70;;
8129;SDS011;4106;52.532;13.408;2022-07-23T01:16:16;2.87;;;2.67;;
8129;SDS011;4106;52.532;13.408;2022-07-23T01:18:43;3.50;;;3.20;;
8129;SDS011;4106;52.532;13.408;2022-07-23T01:21:11;3.78;;;3.47;;
8129;SDS011;4106;52.532;13.408;2022-07-23T01:23:38;3.95;;;3.10;;
8129;SDS011;4106;52.532;13.408;2022-07-23T01:26:06;3.45;;;3.15;;
8129;SDS011;4106;52.532;13.408;2022-07-23T01:28:34;6.22;;;3.58;;
8129;SDS011;4106;52.532;13.408;2022-07-23T01:31:02;3.45;;;3.15;;
8129;SDS011;4106;52.532;13.408;2022-07-23T01:33:30;3.20;;;3.00;;
8129;SDS011;4106;52.532;13.408;2022-07-23T01:35:57;3.60;;;3.30;;
8129;SDS011;4106;52.532;13.408;2022-07-23T01:38:24;4.00;;;3.17;;
8129;SDS011;4106;52.532;13.408;2022-07-23T01:40:51;3.33;;;3.12;;
8129;SDS011;4106;52.532;13.408;2022-07-23T01:43:18;3.53;;;3.22;;
8129;SDS011;4106;52.532;13.408;2022-07-23T01:45:46;3.15;;;2.85;;
8129;SDS011;4106;52.532;13.408;2022-07-23T01:48:13;3.60;;;3.30;;
8129;SDS011;4106;52.532;13.408;2022-07-23T01:50:40;3.30;;;3.00;;
8129;SDS011;4106;52.532;13.408;2022-07-23T01:53:07;3.80;;;3.50;;
8129;SDS011;4106;52.532;13.408;2022-07-23T01:55:34;3.08;;;2.85;;
8129;SDS011;4106;52.532;13.408;2022-07-23T01:58:02;3.20;;;2.92;;
8129;SDS011;4106;52.532;13.408;2022-07-23T02:00:31;4.37;;;3.30;;
8129;SDS011;4106;52.532;13.408;2022-07-23T02:02:58;3.33;;;3.03;;
8129;SDS011;4106;52.532;13.408;2022-07-23T02:05:26;2.97;;;2.78;;
8129;SDS011;4106;52.532;13.408;2022-07-23T02:07:54;3.90;;;3.15;;
8129;SDS011;4106;52.532;13.408;2022-07-23T02:10:21;3.58;;;3.28;;
8129;SDS011;4106;52.532;13.408;2022-07-23T02:12:49;4.25;;;3.50;;
8129;SDS011;4106;52.532;13.408;2022-07-23T02:15:17;3.53;;;3.22;;
8129;SDS011;4106;52.532;13.408;2022-07-23T02:17:45;3.78;;;3.47;;
8129;SDS011;4106;52.532;13.408;2022-07-23T02:20:13;3.47;;;3.17;;
8129;SDS011;4106;52.532;13.408;2022-07-23T02:22:40;3.40;;;3.00;;
8129;SDS011;4106;52.532;13.408;2022-07-23T02:25:07;3.15;;;2.95;;
8129;SDS011;4106;52.532;13.408;2022-07-23T02:27:35;4.53;;;3.12;;
8129;SDS011;4106;52.532;13.408;2022-07-23T02:30:02;4.62;;;3.15;;
8129;SDS011;4106;52.532;13.408;2022-07-23T02:32:29;4.28;;;3.20;;
8129;SDS011;4106;52.532;13.408;2022-07-23T02:34:57;3.55;;;3.25;;
8129;SDS011;4106;52.532;13.408;2022-07-23T02:37:24;3.15;;;2.85;;
8129;SDS011;4106;52.532;13.408;2022-07-23T02:39:52;3.35;;;3.10;;
8129;SDS011;4106;52.532;13.408;2022-07-23T02:42:19;3.20;;;2.95;;
8129;SDS011;4106;52.532;13.408;2022-07-23T02:44:46;3.25;;;3.05;;
8129;SDS011;4106;52.532;13.408;2022-07-23T02:47:13;3.65;;;3.35;;
8129;SDS011;4106;52.532;13.408;2022-07-23T02:49:41;3.42;;;3.12;;
8129;SDS011;4106;52.532;13.408;2022-07-23T02:52:09;2.50;;;2.30;;
8129;SDS011;4106;52.532;13.408;2022-07-23T02:54:37;3.42;;;3.15;;
8129;SDS011;4106;52.532;13.408;2022-07-23T02:57:05;2.78;;;2.62;;
8129;SDS011;4106;52.532;13.408;2022-07-23T02:59:32;3.83;;;3.17;;
8129;SDS011;4106;52.532;13.408;2022-07-23T03:01:59;2.97;;;2.78;;
8129;SDS011;4106;52.532;13.408;2022-07-23T03:04:26;3.60;;;3.30;;
8129;SDS011;4106;52.532;13.408;2022-07-23T03:06:53;2.83;;;2.62;;
8129;SDS011;4106;52.532;13.408;2022-07-23T03:09:21;3.30;;;3.10;;
8129;SDS011;4106;52.532;13.408;2022-07-23T03:11:48;2.95;;;2.62;;
8129;SDS011;4106;52.532;13.408;2022-07-23T03:14:15;3.85;;;3.17;;
8129;SDS011;4106;52.532;13.408;2022-07-23T03:16:42;2.90;;;2.70;;
8129;SDS011;4106;52.532;13.408;2022-07-23T03:19:09;3.12;;;2.87;;
8129;SDS011;4106;52.532;13.408;2022-07-23T03:21:37;3.08;;;2.87;;
8129;SDS011;4106;52.532;13.408;2022-07-23T03:24:04;4.12;;;2.90;;
8129;SDS011;4106;52.532;13.408;2022-07-23T03:26:32;4.57;;;3.20;;
8129;SDS011;4106;52.532;13.408;2022-07-23T03:28:59;4.43;;;2.92;;
8129;SDS011;4106;52.532;13.408;2022-07-23T03:31:26;2.87;;;2.67;;
8129;SDS011;4106;52.532;13.408;2022-07-23T03:33:53;3.67;;;2.75;;
8129;SDS011;4106;52.532;13.408;2022-07-23T03:36:21;2.70;;;2.50;;
8129;SDS011;4106;52.532;13.408;2022-07-23T03:38:49;3.30;;;3.00;;
8129;SDS011;4106;52.532;13.408;2022-07-23T03:41:17;3.45;;;2.65;;
8129;SDS011;4106;52.532;13.408;2022-07-23T03:43:44;3.15;;;2.85;;
8129;SDS011;4106;52.532;13.408;2022-07-23T03:46:11;3.30;;;2.95;;
8129;SDS011;4106;52.532;13.408;2022-07-23T03:48:38;3.05;;;2.78;;
8129;SDS011;4106;52.532;13.408;2022-07-23T03:51:05;3.53;;;2.60;;
8129;SDS011;4106;52.532;13.408;2022-07-23T03:53:32;3.70;;;2.83;;
8129;SDS011;4106;52.532;13.408;2022-07-23T03:56:00;2.67;;;2.45;;
8129;SDS011;4106;52.532;13.408;2022-07-23T03:58:27;3.95;;;2.85;;
8129;SDS011;4106;52.532;13.408;2022-07-23T04:00:54;2.80;;;2.60;;
8129;SDS011;4106;52.532;13.408;2022-07-23T04:03:21;2.92;;;2.72;;
8129;SDS011;4106;52.532;13.408;2022-07-23T04:05:48;2.40;;;2.20;;
8129;SDS011;4106;52.532;13.408;2022-07-23T04:08:16;2.45;;;2.10;;
8129;SDS011;4106;52.532;13.408;2022-07-23T04:10:43;3.10;;;2.47;;
8129;SDS011;4106;52.532;13.408;2022-07-23T04:13:11;2.67;;;2.42;;
8129;SDS011;4106;52.532;13.408;2022-07-23T04:15:39;2.20;;;2.10;;
8129;SDS011;4106;52.532;13.408;2022-07-23T04:18:07;2.67;;;2.35;;
8129;SDS011;4106;52.532;13.408;2022-07-23T04:20:34;2.92;;;2.50;;
8129;SDS011;4106;52.532;13.408;2022-07-23T04:23:01;2.45;;;2.25;;
8129;SDS011;4106;52.532;13.408;2022-07-23T04:25:29;2.40;;;2.20;;
8129;SDS011;4106;52.532;13.408;2022-07-23T04:27:56;3.42;;;2.17;;
8129;SDS011;4106;52.532;13.408;2022-07-23T04:30:24;2.47;;;2.28;;
8129;SDS011;4106;52.532;13.408;2022-07-23T04:32:52;2.25;;;2.00;;
8129;SDS011;4106;52.532;13.408;2022-07-23T04:35:20;3.45;;;2.20;;
8129;SDS011;4106;52.532;13.408;2022-07-23T04:37:48;2.65;;;2.08;;
8129;SDS011;4106;52.532;13.408;2022-07-23T04:40:15;2.75;;;2.28;;
8129;SDS011;4106;52.532;13.408;2022-07-23T04:42:42;2.58;;;1.90;;
8129;SDS011;4106;52.532;13.408;2022-07-23T04:45:09;2.35;;;2.03;;
8129;SDS011;4106;52.532;13.408;2022-07-23T04:47:37;3.20;;;2.20;;
8129;SDS011;4106;52.532;13.408;2022-07-23T04:50:05;3.53;;;2.17;;
8129;SDS011;4106;52.532;13.408;2022-07-23T04:52:33;3.08;;;2.35;;
8129;SDS011;4106;52.532;13.408;2022-07-23T04:55:00;2.22;;;2.03;;
8129;SDS011;4106;52.532;13.408;2022-07-23T04:57:27;2.45;;;2.08;;
8129;SDS011;4106;52.532;13.408;2022-07-23T04:59:55;2.90;;;2.15;;
8129;SDS011;4106;52.532;13.408;2022-07-23T05:02:22;3.55;;;2.28;;
8129;SDS011;4106;52.532;13.408;2022-07-23T05:04:49;3.03;;;1.73;;
8129;SDS011;4106;52.532;13.408;2022-07-23T05:07:16;4.30;;;2.37;;
8129;SDS011;4106;52.532;13.408;2022-07-23T05:09:43;2.45;;;1.80;;
8129;SDS011;4106;52.532;13.408;2022-07-23T05:12:11;2.20;;;1.95;;
8129;SDS011;4106;52.532;13.408;2022-07-23T05:14:39;3.62;;;2.10;;
8129;SDS011;4106;52.532;13.408;2022-07-23T05:17:07;4.03;;;2.40;;
8129;SDS011;4106;52.532;13.408;2022-07-23T05:19:35;2.17;;;1.98;;
8129;SDS011;4106;52.532;13.408;2022-07-23T05:22:04;2.75;;;1.70;;
8129;SDS011;4106;52.532;13.408;2022-07-23T05:24:31;2.25;;;1.77;;
8129;SDS011;4106;52.532;13.408;2022-07-23T05:26:58;2.12;;;1.65;;
8129;SDS011;4106;52.532;13.408;2022-07-23T05:29:25;1.60;;;1.50;;
8129;SDS011;4106;52.532;13.408;2022-07-23T05:31:52;2.33;;;1.83;;
8129;SDS011;4106;52.532;13.408;2022-07-23T05:34:20;2.60;;;2.00;;
8129;SDS011;4106;52.532;13.408;2022-07-23T05:36:47;2.62;;;1.70;;
8129;SDS011;4106;52.532;13.408;2022-07-23T05:39:14;2.03;;;1.80;;
8129;SDS011;4106;52.532;13.408;2022-07-23T05:41:41;3.25;;;1.83;;
8129;SDS011;4106;52.532;13.408;2022-07-23T05:44:08;3.05;;;1.95;;
8129;SDS011;4106;52.532;13.408;2022-07-23T05:46:36;1.95;;;1.70;;
8129;SDS011;4106;52.532;13.408;2022-07-23T05:49:03;1.55;;;1.45;;
8129;SDS011;4106;52.532;13.408;2022-07-23T05:51:31;1.87;;;1.60;;
8129;SDS011;4106;52.532;13.408;2022-07-23T05:53:59;3.55;;;1.85;;
8129;SDS011;4106;52.532;13.408;2022-07-23T05:56:27;1.77;;;1.45;;
8129;SDS011;4106;52.532;13.408;2022-07-23T05:58:54;1.73;;;1.58;;
8129;SDS011;4106;52.532;13.408;2022-07-23T06:01:21;1.70;;;1.30;;
8129;SDS011;4106;52.532;13.408;2022-07-23T06:03:49;1.90;;;1.27;;
8129;SDS011;4106;52.532;13.408;2022-07-23T06:06:16;2.03;;;1.70;;
8129;SDS011;4106;52.532;13.408;2022-07-23T06:08:43;2.20;;;1.50;;
8129;SDS011;4106;52.532;13.408;2022-07-23T06:11:10;1.48;;;1.35;;
8129;SDS011;4106;52.532;13.408;2022-07-23T06:13:37;2.03;;;1.50;;
8129;SDS011;4106;52.532;13.408;2022-07-23T06:16:05;1.98;;;1.52;;
8129;SDS011;4106;52.532;13.408;2022-07-23T06:18:32;2.30;;;1.40;;
8129;SDS011;4106;52.532;13.408;2022-07-23T06:21:00;2.33;;;1.80;;
8129;SDS011;4106;52.532;13.408;2022-07-23T06:23:28;2.17;;;1.73;;
8129;SDS011;4106;52.532;13.408;2022-07-23T06:25:56;3.00;;;1.73;;
8129;SDS011;4106;52.532;13.408;2022-07-23T06:28:23;1.77;;;1.58;;
8129;SDS011;4106;52.532;13.408;2022-07-23T06:30:50;2.15;;;1.60;;
8129;SDS011;4106;52.532;13.408;2022-07-23T06:33:18;2.20;;;1.60;;
8129;SDS011;4106;52.532;13.408;2022-07-23T06:35:45;2.08;;;1.70;;
8129;SDS011;4106;52.532;13.408;2022-07-23T06:38:12;1.50;;;1.40;;
8129;SDS011;4106;52.532;13.408;2022-07-23T06:40:40;3.12;;;1.62;;
8129;SDS011;4106;52.532;13.408;2022-07-23T06:43:08;1.85;;;1.65;;
8129;SDS011;4106;52.532;13.408;2022-07-23T06:45:35;2.60;;;1.42;;
8129;SDS011;4106;52.532;13.408;2022-07-23T06:48:02;5.45;;;2.30;;
8129;SDS011;4106;52.532;13.408;2022-07-23T06:50:30;7.55;;;2.47;;
8129;SDS011;4106;52.532;13.408;2022-07-23T06:52:58;2.40;;;1.75;;
8129;SDS011;4106;52.532;13.408;2022-07-23T06:55:25;16.87;;;2.85;;
8129;SDS011;4106;52.532;13.408;2022-07-23T06:57:53;4.90;;;1.42;;
8129;SDS011;4106;52.532;13.408;2022-07-23T07:00:21;2.00;;;1.60;;
8129;SDS011;4106;52.532;13.408;2022-07-23T07:02:49;3.50;;;1.40;;
8129;SDS011;4106;52.532;13.408;2022-07-23T07:05:16;1.77;;;1.62;;
8129;SDS011;4106;52.532;13.408;2022-07-23T07:07:43;2.78;;;1.50;;
8129;SDS011;4106;52.532;13.408;2022-07-23T07:10:11;2.80;;;1.60;;
8129;SDS011;4106;52.532;13.408;2022-07-23T07:12:39;1.92;;;1.70;;
8129;SDS011;4106;52.532;13.408;2022-07-23T07:15:07;4.62;;;1.85;;
8129;SDS011;4106;52.532;13.408;2022-07-23T07:17:35;2.85;;;1.75;;
8129;SDS011;4106;52.532;13.408;2022-07-23T07:20:02;2.60;;;1.90;;
8129;SDS011;4106;52.532;13.408;2022-07-23T07:22:30;4.65;;;1.83;;
8129;SDS011;4106;52.532;13.408;2022-07-23T07:24:58;5.28;;;2.00;;
8129;SDS011;4106;52.532;13.408;2022-07-23T07:27:26;2.20;;;1.80;;
8129;SDS011;4106;52.532;13.408;2022-07-23T07:29:54;2.17;;;1.77;;
8129;SDS011;4106;52.532;13.408;2022-07-23T07:32:22;7.22;;;2.35;;
8129;SDS011;4106;52.532;13.408;2022-07-23T07:34:51;2.30;;;2.00;;
8129;SDS011;4106;52.532;13.408;2022-07-23T07:37:18;3.55;;;1.85;;
8129;SDS011;4106;52.532;13.408;2022-07-23T07:39:45;5.03;;;1.90;;
8129;SDS011;4106;52.532;13.408;2022-07-23T07:42:13;3.60;;;2.10;;
8129;SDS011;4106;52.532;13.408;2022-07-23T07:44:41;2.47;;;1.80;;
8129;SDS011;4106;52.532;13.408;2022-07-23T07:47:08;2.87;;;2.03;;
8129;SDS011;4106;52.532;13.408;2022-07-23T07:49:35;1.92;;;1.70;;
8129;SDS011;4106;52.532;13.408;2022-07-23T07:52:02;1.90;;;1.80;;
8129;SDS011;4106;52.532;13.408;2022-07-23T07:54:31;3.08;;;2.08;;
8129;SDS011;4106;52.532;13.408;2022-07-23T07:56:59;4.62;;;1.90;;
8129;SDS011;4106;52.532;13.408;2022-07-23T07:59:26;3.55;;;1.90;;
8129;SDS011;4106;52.532;13.408;2022-07-23T08:01:53;1.73;;;1.62;;
8129;SDS011;4106;52.532;13.408;2022-07-23T08:04:23;2.25;;;1.62;;
8129;SDS011;4106;52.532;13.408;2022-07-23T08:06:52;2.72;;;1.67;;
8129;SDS011;4106;52.532;13.408;2022-07-23T08:09:20;4.70;;;2.10;;
8129;SDS011;4106;52.532;13.408;2022-07-23T08:11:48;2.78;;;1.73;;
8129;SDS011;4106;52.532;13.408;2022-07-23T08:14:15;1.80;;;1.65;;
8129;SDS011;4106;52.532;13.408;2022-07-23T08:16:42;3.45;;;1.90;;
8129;SDS011;4106;52.532;13.408;2022-07-23T08:19:09;2.00;;;1.80;;
8129;SDS011;4106;52.532;13.408;2022-07-23T08:21:36;3.00;;;1.48;;
8129;SDS011;4106;52.532;13.408;2022-07-23T08:24:04;2.47;;;1.50;;
8129;SDS011;4106;52.532;13.408;2022-07-23T08:26:31;4.62;;;1.65;;
8129;SDS011;4106;52.532;13.408;2022-07-23T08:28:58;3.42;;;1.80;;
8129;SDS011;4106;52.532;13.408;2022-07-23T08:31:26;2.55;;;1.98;;
8129;SDS011;4106;52.532;13.408;2022-07-23T08:33:53;2.45;;;1.42;;
8129;SDS011;4106;52.532;13.408;2022-07-23T08:36:20;1.87;;;1.50;;
8129;SDS011;4106;52.532;13.408;2022-07-23T08:38:48;2.45;;;1.33;;
8129;SDS011;4106;52.532;13.408;2022-07-23T08:41:15;2.75;;;1.98;;
8129;SDS011;4106;52.532;13.408;2022-07-23T08:43:42;2.20;;;1.30;;
8129;SDS011;4106;52.532;13.408;2022-07-23T08:46:10;1.10;;;1.00;;
8129;SDS011;4106;52.532;13.408;2022-07-23T08:48:38;3.53;;;1.73;;
8129;SDS011;4106;52.532;13.408;2022-07-23T08:51:06;2.78;;;1.50;;
8129;SDS011;4106;52.532;13.408;2022-07-23T08:53:34;2.33;;;1.87;;
8129;SDS011;4106;52.532;13.408;2022-07-23T08:56:03;4.35;;;1.60;;
8129;SDS011;4106;52.532;13.408;2022-07-23T08:58:31;1.65;;;1.50;;
8129;SDS011;4106;52.532;13.408;2022-07-23T09:00:58;2.87;;;1.42;;
8129;SDS011;4106;52.532;13.408;2022-07-23T09:03:27;2.58;;;1.48;;
8129;SDS011;4106;52.532;13.408;2022-07-23T09:05:56;2.60;;;1.17;;
8129;SDS011;4106;52.532;13.408;2022-07-23T09:08:25;5.70;;;1.58;;
8129;SDS011;4106;52.532;13.408;2022-07-23T09:10:55;1.20;;;1.10;;
8129;SDS011;4106;52.532;13.408;2022-07-23T09:13:23;2.20;;;1.45;;
8129;SDS011;4106;52.532;13.408;2022-07-23T09:16:31;2.78;;;1.35;;
8129;SDS011;4106;52.532;13.408;2022-07-23T09:18:46;1.30;;;1.20;;
8129;SDS011;4106;52.532;13.408;2022-07-23T09:23:58;3.62;;;1.37;;
8129;SDS011;4106;52.532;13.408;2022-07-23T09:26:39;1.75;;;1.20;;
8129;SDS011;4106;52.532;13.408;2022-07-23T09:29:12;1.92;;;1.37;;
8129;SDS011;4106;52.532;13.408;2022-07-23T09:31:43;1.52;;;1.30;;
8129;SDS011;4106;52.532;13.408;2022-07-23T09:34:20;2.53;;;1.58;;
8129;SDS011;4106;52.532;13.408;2022-07-23T09:36:47;1.90;;;1.70;;
8129;SDS011;4106;52.532;13.408;2022-07-23T09:39:27;2.55;;;1.55;;
8129;SDS011;4106;52.532;13.408;2022-07-23T09:41:43;3.67;;;1.67;;
8129;SDS011;4106;52.532;13.408;2022-07-23T09:44:12;1.62;;;1.50;;
8129;SDS011;4106;52.532;13.408;2022-07-23T09:46:43;2.00;;;1.80;;
8129;SDS011;4106;52.532;13.408;2022-07-23T09:49:11;2.42;;;1.50;;
8129;SDS011;4106;52.532;13.408;2022-07-23T09:51:43;3.22;;;2.10;;
8129;SDS011;4106;52.532;13.408;2022-07-23T09:54:19;5.95;;;2.33;;
8129;SDS011;4106;52.532;13.408;2022-07-23T09:56:37;2.78;;;1.90;;
8129;SDS011;4106;52.532;13.408;2022-07-23T09:59:04;2.42;;;1.77;;
8129;SDS011;4106;52.532;13.408;2022-07-23T10:01:32;3.05;;;1.65;;
8129;SDS011;4106;52.532;13.408;2022-07-23T10:04:00;2.72;;;2.10;;
8129;SDS011;4106;52.532;13.408;2022-07-23T10:06:28;5.00;;;2.42;;
8129;SDS011;4106;52.532;13.408;2022-07-23T10:08:57;9.18;;;4.68;;
8129;SDS011;4106;52.532;13.408;2022-07-23T10:11:24;5.00;;;3.15;;
8129;SDS011;4106;52.532;13.408;2022-07-23T10:13:51;4.80;;;3.45;;
8129;SDS011;4106;52.532;13.408;2022-07-23T10:16:18;4.12;;;3.25;;
8129;SDS011;4106;52.532;13.408;2022-07-23T10:18:46;10.52;;;7.35;;
8129;SDS011;4106;52.532;13.408;2022-07-23T10:21:16;4.62;;;4.20;;
8129;SDS011;4106;52.532;13.408;2022-07-23T10:23:42;5.28;;;4.43;;
8129;SDS011;4106;52.532;13.408;2022-07-23T10:26:23;3.80;;;2.78;;
8129;SDS011;4106;52.532;13.408;2022-07-23T10:28:55;6.72;;;5.30;;
8129;SDS011;4106;52.532;13.408;2022-07-23T10:34:08;10.93;;;7.32;;
8129;SDS011;4106;52.532;13.408;2022-07-23T10:36:51;4.75;;;4.22;;
8129;SDS011;4106;52.532;13.408;2022-07-23T10:39:19;4.80;;;4.22;;
8129;SDS011;4106;52.532;13.408;2022-07-23T10:42:12;6.97;;;4.32;;
8129;SDS011;4106;52.532;13.408;2022-07-23T10:44:43;7.05;;;4.55;;
8129;SDS011;4106;52.532;13.408;2022-07-23T10:47:09;3.42;;;3.12;;
8129;SDS011;4106;52.532;13.408;2022-07-23T10:49:53;4.00;;;3.60;;
8129;SDS011;4106;52.532;13.408;2022-07-23T10:52:21;3.58;;;2.37;;
8129;SDS011;4106;52.532;13.408;2022-07-23T10:54:49;2.08;;;1.92;;
8129;SDS011;4106;52.532;13.408;2022-07-23T10:57:15;3.20;;;2.10;;
8129;SDS011;4106;52.532;13.408;2022-07-23T11:02:38;3.67;;;2.10;;
8129;SDS011;4106;52.532;13.408;2022-07-23T11:05:05;2.50;;;1.75;;
8129;SDS011;4106;52.532;13.408;2022-07-23T11:07:32;2.10;;;1.95;;
8129;SDS011;4106;52.532;13.408;2022-07-23T11:09:59;4.10;;;2.03;;
8129;SDS011;4106;52.532;13.408;2022-07-23T11:12:34;3.00;;;1.90;;
8129;SDS011;4106;52.532;13.408;2022-07-23T11:15:03;3.72;;;2.00;;
8129;SDS011;4106;52.532;13.408;2022-07-23T11:17:29;2.12;;;2.03;;
8129;SDS011;4106;52.532;13.408;2022-07-23T11:22:41;3.30;;;2.08;;
8129;SDS011;4106;52.532;13.408;2022-07-23T11:28:08;29.15;;;6.60;;
8129;SDS011;4106;52.532;13.408;2022-07-23T11:30:37;88.18;;;19.15;;
8129;SDS011;4106;52.532;13.408;2022-07-23T11:35:49;128.35;;;30.15;;
8129;SDS011;4106;52.532;13.408;2022-07-23T11:38:17;127.05;;;30.70;;
8129;SDS011;4106;52.532;13.408;2022-07-23T11:40:44;116.65;;;27.00;;
8129;SDS011;4106;52.532;13.408;2022-07-23T11:43:11;38.95;;;13.15;;
8129;SDS011;4106;52.532;13.408;2022-07-23T11:45:41;49.63;;;13.55;;
8129;SDS011;4106;52.532;13.408;2022-07-23T11:48:08;53.70;;;13.52;;
8129;SDS011;4106;52.532;13.408;2022-07-23T11:50:35;34.75;;;10.40;;
8129;SDS011;4106;52.532;13.408;2022-07-23T11:53:02;16.20;;;6.70;;
8129;SDS011;4106;52.532;13.408;2022-07-23T11:55:30;15.13;;;6.10;;
8129;SDS011;4106;52.532;13.408;2022-07-23T11:57:57;9.73;;;4.72;;
8129;SDS011;4106;52.532;13.408;2022-07-23T12:00:26;20.35;;;7.53;;
8129;SDS011;4106;52.532;13.408;2022-07-23T12:02:53;10.68;;;4.43;;
8129;SDS011;4106;52.532;13.408;2022-07-23T12:05:23;15.02;;;4.45;;
8129;SDS011;4106;52.532;13.408;2022-07-23T12:07:51;6.53;;;3.60;;
8129;SDS011;4106;52.532;13.408;2022-07-23T12:10:19;9.30;;;3.42;;
8129;SDS011;4106;52.532;13.408;2022-07-23T12:12:53;5.65;;;3.15;;
8129;SDS011;4106;52.532;13.408;2022-07-23T12:15:23;5.97;;;3.25;;
8129;SDS011;4106;52.532;13.408;2022-07-23T12:17:49;3.10;;;1.90;;
8129;SDS011;4106;52.532;13.408;2022-07-23T12:20:16;3.03;;;2.70;;
8129;SDS011;4106;52.532;13.408;2022-07-23T12:22:44;2.83;;;2.20;;
8129;SDS011;4106;52.532;13.408;2022-07-23T12:25:15;5.32;;;2.20;;
8129;SDS011;4106;52.532;13.408;2022-07-23T12:27:43;5.05;;;2.50;;
8129;SDS011;4106;52.532;13.408;2022-07-23T12:30:23;2.92;;;2.20;;
8129;SDS011;4106;52.532;13.408;2022-07-23T12:32:51;2.20;;;1.92;;
8129;SDS011;4106;52.532;13.408;2022-07-23T12:35:18;3.17;;;2.20;;
8129;SDS011;4106;52.532;13.408;2022-07-23T12:37:46;4.05;;;2.53;;
8129;SDS011;4106;52.532;13.408;2022-07-23T12:40:18;4.00;;;2.70;;
8129;SDS011;4106;52.532;13.408;2022-07-23T12:42:47;4.25;;;2.30;;
8129;SDS011;4106;52.532;13.408;2022-07-23T12:45:15;2.37;;;2.17;;
8129;SDS011;4106;52.532;13.408;2022-07-23T12:53:03;2.78;;;2.03;;
8129;SDS011;4106;52.532;13.408;2022-07-23T12:55:31;2.60;;;2.40;;
8129;SDS011;4106;52.532;13.408;2022-07-23T12:58:03;2.97;;;2.30;;
8129;SDS011;4106;52.532;13.408;2022-07-23T13:00:30;1.92;;;1.83;;
8129;SDS011;4106;52.532;13.408;2022-07-23T13:02:57;3.55;;;2.25;;
8129;SDS011;4106;52.532;13.408;2022-07-23T13:05:25;2.78;;;2.58;;
8129;SDS011;4106;52.532;13.408;2022-07-23T13:07:52;4.05;;;2.65;;
8129;SDS011;4106;52.532;13.408;2022-07-23T13:10:19;3.30;;;2.10;;
8129;SDS011;4106;52.532;13.408;2022-07-23T13:12:46;4.53;;;2.33;;
8129;SDS011;4106;52.532;13.408;2022-07-23T13:15:14;2.25;;;1.98;;
8129;SDS011;4106;52.532;13.408;2022-07-23T13:17:42;2.67;;;2.12;;
8129;SDS011;4106;52.532;13.408;2022-07-23T13:20:10;2.75;;;2.30;;
8129;SDS011;4106;52.532;13.408;2022-07-23T13:22:37;3.78;;;2.70;;
8129;SDS011;4106;52.532;13.408;2022-07-23T13:25:06;3.08;;;2.62;;
8129;SDS011;4106;52.532;13.408;2022-07-23T13:27:33;2.60;;;2.22;;
8129;SDS011;4106;52.532;13.408;2022-07-23T13:30:00;2.30;;;2.10;;
8129;SDS011;4106;52.532;13.408;2022-07-23T13:32:28;4.43;;;2.37;;
8129;SDS011;4106;52.532;13.408;2022-07-23T13:34:55;2.12;;;2.03;;
8129;SDS011;4106;52.532;13.408;2022-07-23T13:37:22;3.53;;;2.53;;
8129;SDS011;4106;52.532;13.408;2022-07-23T13:39:49;2.05;;;1.92;;
8129;SDS011;4106;52.532;13.408;2022-07-23T13:42:16;3.83;;;2.62;;
8129;SDS011;4106;52.532;13.408;2022-07-23T13:44:44;1.90;;;1.80;;
8129;SDS011;4106;52.532;13.408;2022-07-23T13:47:12;2.35;;;2.15;;
8129;SDS011;4106;52.532;13.408;2022-07-23T13:49:40;3.25;;;2.22;;
8129;SDS011;4106;52.532;13.408;2022-07-23T13:52:08;2.40;;;2.17;;
8129;SDS011;4106;52.532;13.408;2022-07-23T13:54:35;2.92;;;2.28;;
8129;SDS011;4106;52.532;13.408;2022-07-23T13:57:02;2.17;;;1.98;;
8129;SDS011;4106;52.532;13.408;2022-07-23T13:59:29;2.50;;;2.30;;
8129;SDS011;4106;52.532;13.408;2022-07-23T14:01:56;2.67;;;2.03;;
8129;SDS011;4106;52.532;13.408;2022-07-23T14:04:24;2.90;;;2.25;;
8129;SDS011;4106;52.532;13.408;2022-07-23T14:06:52;3.20;;;2.50;;
8129;SDS011;4106;52.532;13.408;2022-07-23T14:09:20;2.30;;;2.10;;
8129;SDS011;4106;52.532;13.408;2022-07-23T14:11:47;2.58;;;2.37;;
8129;SDS011;4106;52.532;13.408;2022-07-23T14:14:16;2.62;;;2.37;;
8129;SDS011;4106;52.532;13.408;2022-07-23T14:16:43;2.60;;;2.00;;
8129;SDS011;4106;52.532;13.408;2022-07-23T14:19:11;1.92;;;1.83;;
8129;SDS011;4106;52.532;13.408;2022-07-23T14:21:38;2.33;;;1.83;;
8129;SDS011;4106;52.532;13.408;2022-07-23T14:24:06;2.55;;;2.12;;
8129;SDS011;4106;52.532;13.408;2022-07-23T14:26:33;2.30;;;1.90;;
8129;SDS011;4106;52.532;13.408;2022-07-23T14:29:01;2.20;;;1.90;;
8129;SDS011;4106;52.532;13.408;2022-07-23T14:31:28;2.10;;;1.65;;
8129;SDS011;4106;52.532;13.408;2022-07-23T14:33:55;3.40;;;2.03;;
8129;SDS011;4106;52.532;13.408;2022-07-23T14:36:22;1.87;;;1.77;;
8129;SDS011;4106;52.532;13.408;2022-07-23T14:38:49;2.22;;;1.87;;
8129;SDS011;4106;52.532;13.408;2022-07-23T14:41:17;1.70;;;1.60;;
8129;SDS011;4106;52.532;13.408;2022-07-23T14:43:45;2.65;;;1.80;;
8129;SDS011;4106;52.532;13.408;2022-07-23T14:46:14;2.80;;;1.50;;
8129;SDS011;4106;52.532;13.408;2022-07-23T14:48:41;2.00;;;1.70;;
8129;SDS011;4106;52.532;13.408;2022-07-23T14:51:09;1.75;;;1.50;;
8129;SDS011;4106;52.532;13.408;2022-07-23T14:53:37;2.20;;;2.00;;
8129;SDS011;4106;52.532;13.408;2022-07-23T14:56:05;1.80;;;1.70;;
8129;SDS011;4106;52.532;13.408;2022-07-23T14:58:32;1.60;;;1.50;;
8129;SDS011;4106;52.532;13.408;2022-07-23T15:00:59;2.00;;;1.75;;
8129;SDS011;4106;52.532;13.408;2022-07-23T15:03:26;1.65;;;1.52;;
8129;SDS011;4106;52.532;13.408;2022-07-23T15:05:53;1.40;;;1.25;;
8129;SDS011;4106;52.532;13.408;2022-07-23T15:08:21;1.42;;;1.33;;
8129;SDS011;4106;52.532;13.408;2022-07-23T15:10:48;2.65;;;1.55;;
8129;SDS011;4106;52.532;13.408;2022-07-23T15:13:16;1.52;;;1.42;;
8129;SDS011;4106;52.532;13.408;2022-07-23T15:15:43;1.33;;;1.23;;
8129;SDS011;4106;52.532;13.408;2022-07-23T15:18:11;1.08;;;1.08;;
8129;SDS011;4106;52.532;13.408;2022-07-23T15:20:37;1.33;;;1.23;;
8129;SDS011;4106;52.532;13.408;2022-07-23T15:23:05;1.17;;;1.17;;
8129;SDS011;4106;52.532;13.408;2022-07-23T15:25:32;1.83;;;1.25;;
8129;SDS011;4106;52.532;13.408;2022-07-23T15:27:59;1.37;;;1.23;;
8129;SDS011;4106;52.532;13.408;2022-07-23T15:30:27;4.15;;;1.40;;